sensor_id;sensor_type;location;lat;lon;timestamp;P1;durP1;ratioP1;P2;durP2;ratioP2
16954;SDS011;8594;52.052;8.354;2024-01-30T00:01:20;22.77;;;9.90;;
16954;SDS011;8594;52.052;8.354;2024-01-30T00:03:47;16.77;;;9.53;;
16954;SDS011;8594;52.052;8.354;2024-01-30T00:06:17;15.27;;;9.00;;
16954;SDS011;8594;52.052;8.354;2024-01-30T00:08:46;15.33;;;9.13;;
16954;SDS011;8594;52.052;8.354;2024-01-30T00:11:13;16.17;;;9.90;;
16954;SDS011;8594;52.052;8.354;2024-01-30T00:13:40;17.10;;;9.43;;
16954;SDS011;8594;52.052;8.354;2024-01-30T00:16:19;18.97;;;9.90;;
16954;SDS011;8594;52.052;8.354;2024-01-30T00:18:46;17.27;;;9.47;;
16954;SDS011;8594;52.052;8.354;2024-01-30T00:21:13;17.93;;;9.70;;
16954;SDS011;8594;52.052;8.354;2024-01-30T00:23:40;18.00;;;9.93;;
16954;SDS011;8594;52.052;8.354;2024-01-30T00:26:07;16.87;;;10.33;;
16954;SDS011;8594;52.052;8.354;2024-01-30T00:28:33;14.40;;;8.97;;
16954;SDS011;8594;52.052;8.354;2024-01-30T00:31:00;17.13;;;9.20;;
16954;SDS011;8594;52.052;8.354;2024-01-30T00:33:28;18.97;;;9.40;;
16954;SDS011;8594;52.052;8.354;2024-01-30T00:35:55;15.83;;;9.57;;
16954;SDS011;8594;52.052;8.354;2024-01-30T00:38:22;16.43;;;9.67;;
16954;SDS011;8594;52.052;8.354;2024-01-30T00:40:49;14.77;;;9.53;;
16954;SDS011;8594;52.052;8.354;2024-01-30T00:43:16;17.77;;;9.93;;
16954;SDS011;8594;52.052;8.354;2024-01-30T00:45:43;19.70;;;9.70;;
16954;SDS011;8594;52.052;8.354;2024-01-30T00:48:10;13.90;;;9.40;;
16954;SDS011;8594;52.052;8.354;2024-01-30T00:50:38;20.40;;;10.13;;
16954;SDS011;8594;52.052;8.354;2024-01-30T00:53:04;21.30;;;9.73;;
16954;SDS011;8594;52.052;8.354;2024-01-30T00:55:31;16.00;;;10.07;;
16954;SDS011;8594;52.052;8.354;2024-01-30T00:57:58;19.63;;;10.03;;
16954;SDS011;8594;52.052;8.354;2024-01-30T01:00:24;18.77;;;9.17;;
16954;SDS011;8594;52.052;8.354;2024-01-30T01:02:53;18.17;;;10.13;;
16954;SDS011;8594;52.052;8.354;2024-01-30T01:05:21;15.83;;;9.93;;
16954;SDS011;8594;52.052;8.354;2024-01-30T01:07:49;19.27;;;9.67;;
16954;SDS011;8594;52.052;8.354;2024-01-30T01:10:16;19.27;;;9.73;;
16954;SDS011;8594;52.052;8.354;2024-01-30T01:12:43;19.30;;;9.80;;
16954;SDS011;8594;52.052;8.354;2024-01-30T01:15:10;16.63;;;9.43;;
16954;SDS011;8594;52.052;8.354;2024-01-30T01:17:37;20.63;;;9.93;;
16954;SDS011;8594;52.052;8.354;2024-01-30T01:20:05;16.50;;;9.67;;
16954;SDS011;8594;52.052;8.354;2024-01-30T01:22:35;17.80;;;9.80;;
16954;SDS011;8594;52.052;8.354;2024-01-30T01:25:05;19.50;;;9.77;;
16954;SDS011;8594;52.052;8.354;2024-01-30T01:27:33;19.10;;;10.30;;
16954;SDS011;8594;52.052;8.354;2024-01-30T01:30:05;16.63;;;9.63;;
16954;SDS011;8594;52.052;8.354;2024-01-30T01:32:35;16.53;;;9.80;;
16954;SDS011;8594;52.052;8.354;2024-01-30T01:35:03;16.77;;;9.77;;
16954;SDS011;8594;52.052;8.354;2024-01-30T01:37:31;17.27;;;9.47;;
16954;SDS011;8594;52.052;8.354;2024-01-30T01:39:58;17.87;;;10.23;;
16954;SDS011;8594;52.052;8.354;2024-01-30T01:42:27;16.93;;;9.40;;
16954;SDS011;8594;52.052;8.354;2024-01-30T01:44:53;19.77;;;10.03;;
16954;SDS011;8594;52.052;8.354;2024-01-30T01:47:20;17.63;;;9.63;;
16954;SDS011;8594;52.052;8.354;2024-01-30T01:49:47;20.77;;;10.80;;
16954;SDS011;8594;52.052;8.354;2024-01-30T01:52:14;18.23;;;10.40;;
16954;SDS011;8594;52.052;8.354;2024-01-30T01:54:41;17.37;;;9.77;;
16954;SDS011;8594;52.052;8.354;2024-01-30T01:57:08;16.80;;;9.97;;
16954;SDS011;8594;52.052;8.354;2024-01-30T01:59:36;18.10;;;9.73;;
16954;SDS011;8594;52.052;8.354;2024-01-30T02:02:03;17.77;;;10.20;;
16954;SDS011;8594;52.052;8.354;2024-01-30T02:04:34;17.20;;;9.77;;
16954;SDS011;8594;52.052;8.354;2024-01-30T02:07:01;15.40;;;9.17;;
16954;SDS011;8594;52.052;8.354;2024-01-30T02:09:28;19.30;;;10.00;;
16954;SDS011;8594;52.052;8.354;2024-01-30T02:11:55;15.17;;;10.03;;
16954;SDS011;8594;52.052;8.354;2024-01-30T02:14:22;17.97;;;9.80;;
16954;SDS011;8594;52.052;8.354;2024-01-30T02:16:50;19.63;;;9.83;;
16954;SDS011;8594;52.052;8.354;2024-01-30T02:19:16;18.20;;;9.83;;
16954;SDS011;8594;52.052;8.354;2024-01-30T02:21:46;14.40;;;9.27;;
16954;SDS011;8594;52.052;8.354;2024-01-30T02:24:13;20.67;;;10.00;;
16954;SDS011;8594;52.052;8.354;2024-01-30T02:26:39;17.63;;;10.70;;
16954;SDS011;8594;52.052;8.354;2024-01-30T02:29:06;17.13;;;10.00;;
16954;SDS011;8594;52.052;8.354;2024-01-30T02:31:33;17.07;;;9.60;;
16954;SDS011;8594;52.052;8.354;2024-01-30T02:33:59;17.37;;;10.53;;
16954;SDS011;8594;52.052;8.354;2024-01-30T02:36:26;17.50;;;10.40;;
16954;SDS011;8594;52.052;8.354;2024-01-30T02:38:54;19.60;;;10.00;;
16954;SDS011;8594;52.052;8.354;2024-01-30T02:41:21;19.70;;;10.53;;
16954;SDS011;8594;52.052;8.354;2024-01-30T02:43:47;17.20;;;10.10;;
16954;SDS011;8594;52.052;8.354;2024-01-30T02:46:14;22.20;;;10.93;;
16954;SDS011;8594;52.052;8.354;2024-01-30T02:48:41;15.77;;;9.97;;
16954;SDS011;8594;52.052;8.354;2024-01-30T02:51:08;19.93;;;10.73;;
16954;SDS011;8594;52.052;8.354;2024-01-30T02:53:34;16.77;;;9.77;;
16954;SDS011;8594;52.052;8.354;2024-01-30T02:56:03;21.03;;;10.97;;
16954;SDS011;8594;52.052;8.354;2024-01-30T02:58:31;18.80;;;10.37;;
16954;SDS011;8594;52.052;8.354;2024-01-30T03:00:57;22.10;;;10.87;;
16954;SDS011;8594;52.052;8.354;2024-01-30T03:03:24;18.43;;;10.57;;
16954;SDS011;8594;52.052;8.354;2024-01-30T03:05:51;22.53;;;10.63;;
16954;SDS011;8594;52.052;8.354;2024-01-30T03:08:17;18.10;;;10.87;;
16954;SDS011;8594;52.052;8.354;2024-01-30T03:10:44;19.53;;;10.50;;
16954;SDS011;8594;52.052;8.354;2024-01-30T03:13:12;18.83;;;10.17;;
16954;SDS011;8594;52.052;8.354;2024-01-30T03:15:39;19.37;;;10.77;;
16954;SDS011;8594;52.052;8.354;2024-01-30T03:18:06;19.60;;;11.07;;
16954;SDS011;8594;52.052;8.354;2024-01-30T03:20:33;19.50;;;11.00;;
16954;SDS011;8594;52.052;8.354;2024-01-30T03:23:00;16.83;;;10.03;;
16954;SDS011;8594;52.052;8.354;2024-01-30T03:25:27;22.50;;;10.73;;
16954;SDS011;8594;52.052;8.354;2024-01-30T03:27:54;25.00;;;10.97;;
16954;SDS011;8594;52.052;8.354;2024-01-30T03:30:22;17.77;;;10.93;;
16954;SDS011;8594;52.052;8.354;2024-01-30T03:32:49;18.63;;;10.33;;
16954;SDS011;8594;52.052;8.354;2024-01-30T03:35:16;23.10;;;11.63;;
16954;SDS011;8594;52.052;8.354;2024-01-30T03:37:45;20.13;;;11.20;;
16954;SDS011;8594;52.052;8.354;2024-01-30T03:40:12;19.13;;;10.90;;
16954;SDS011;8594;52.052;8.354;2024-01-30T03:42:40;18.07;;;11.40;;
16954;SDS011;8594;52.052;8.354;2024-01-30T03:45:07;23.57;;;11.77;;
16954;SDS011;8594;52.052;8.354;2024-01-30T03:47:36;23.73;;;10.40;;
16954;SDS011;8594;52.052;8.354;2024-01-30T03:50:03;18.50;;;10.63;;
16954;SDS011;8594;52.052;8.354;2024-01-30T03:52:30;17.23;;;10.40;;
16954;SDS011;8594;52.052;8.354;2024-01-30T03:54:57;17.97;;;10.53;;
16954;SDS011;8594;52.052;8.354;2024-01-30T03:57:24;17.60;;;11.33;;
16954;SDS011;8594;52.052;8.354;2024-01-30T03:59:51;19.83;;;10.60;;
16954;SDS011;8594;52.052;8.354;2024-01-30T04:02:18;22.37;;;11.07;;
16954;SDS011;8594;52.052;8.354;2024-01-30T04:04:46;22.53;;;10.43;;
16954;SDS011;8594;52.052;8.354;2024-01-30T04:07:13;19.60;;;11.00;;
16954;SDS011;8594;52.052;8.354;2024-01-30T04:09:39;18.23;;;11.00;;
16954;SDS011;8594;52.052;8.354;2024-01-30T04:12:06;20.10;;;11.00;;
16954;SDS011;8594;52.052;8.354;2024-01-30T04:14:33;22.87;;;11.03;;
16954;SDS011;8594;52.052;8.354;2024-01-30T04:17:00;23.60;;;11.30;;
16954;SDS011;8594;52.052;8.354;2024-01-30T04:19:27;18.77;;;10.57;;
16954;SDS011;8594;52.052;8.354;2024-01-30T04:21:55;18.93;;;11.47;;
16954;SDS011;8594;52.052;8.354;2024-01-30T04:24:21;19.27;;;10.53;;
16954;SDS011;8594;52.052;8.354;2024-01-30T04:26:47;20.83;;;10.37;;
16954;SDS011;8594;52.052;8.354;2024-01-30T04:29:14;19.50;;;11.20;;
16954;SDS011;8594;52.052;8.354;2024-01-30T04:31:41;21.23;;;11.90;;
16954;SDS011;8594;52.052;8.354;2024-01-30T04:34:07;17.97;;;10.70;;
16954;SDS011;8594;52.052;8.354;2024-01-30T04:36:34;21.80;;;11.40;;
16954;SDS011;8594;52.052;8.354;2024-01-30T04:39:02;21.90;;;10.93;;
16954;SDS011;8594;52.052;8.354;2024-01-30T04:41:29;18.63;;;11.00;;
16954;SDS011;8594;52.052;8.354;2024-01-30T04:43:56;21.83;;;11.10;;
16954;SDS011;8594;52.052;8.354;2024-01-30T04:46:23;16.77;;;10.83;;
16954;SDS011;8594;52.052;8.354;2024-01-30T04:48:50;18.80;;;11.47;;
16954;SDS011;8594;52.052;8.354;2024-01-30T04:51:17;24.60;;;11.07;;
16954;SDS011;8594;52.052;8.354;2024-01-30T04:53:43;17.43;;;9.63;;
16954;SDS011;8594;52.052;8.354;2024-01-30T04:56:11;17.23;;;10.30;;
16954;SDS011;8594;52.052;8.354;2024-01-30T04:58:38;19.43;;;10.93;;
16954;SDS011;8594;52.052;8.354;2024-01-30T05:01:05;21.73;;;11.33;;
16954;SDS011;8594;52.052;8.354;2024-01-30T05:03:32;17.30;;;10.07;;
16954;SDS011;8594;52.052;8.354;2024-01-30T05:06:00;24.33;;;12.23;;
16954;SDS011;8594;52.052;8.354;2024-01-30T05:08:26;23.40;;;10.97;;
16954;SDS011;8594;52.052;8.354;2024-01-30T05:10:54;19.50;;;11.17;;
16954;SDS011;8594;52.052;8.354;2024-01-30T05:13:22;21.40;;;11.00;;
16954;SDS011;8594;52.052;8.354;2024-01-30T05:15:49;19.07;;;11.07;;
16954;SDS011;8594;52.052;8.354;2024-01-30T05:18:16;24.77;;;11.23;;
16954;SDS011;8594;52.052;8.354;2024-01-30T05:20:42;21.57;;;11.37;;
16954;SDS011;8594;52.052;8.354;2024-01-30T05:23:09;24.33;;;11.70;;
16954;SDS011;8594;52.052;8.354;2024-01-30T05:25:36;20.27;;;10.57;;
16954;SDS011;8594;52.052;8.354;2024-01-30T05:28:03;20.13;;;11.60;;
16954;SDS011;8594;52.052;8.354;2024-01-30T05:30:31;23.63;;;11.97;;
16954;SDS011;8594;52.052;8.354;2024-01-30T05:32:58;20.77;;;11.27;;
16954;SDS011;8594;52.052;8.354;2024-01-30T05:35:25;19.77;;;11.60;;
16954;SDS011;8594;52.052;8.354;2024-01-30T05:37:52;16.60;;;10.87;;
16954;SDS011;8594;52.052;8.354;2024-01-30T05:40:18;24.13;;;11.97;;
16954;SDS011;8594;52.052;8.354;2024-01-30T05:42:44;18.73;;;11.30;;
16954;SDS011;8594;52.052;8.354;2024-01-30T05:45:11;22.80;;;11.80;;
16954;SDS011;8594;52.052;8.354;2024-01-30T05:47:39;20.67;;;11.00;;
16954;SDS011;8594;52.052;8.354;2024-01-30T05:50:06;19.40;;;11.23;;
16954;SDS011;8594;52.052;8.354;2024-01-30T05:52:33;19.47;;;10.90;;
16954;SDS011;8594;52.052;8.354;2024-01-30T05:55:00;19.77;;;11.00;;
16954;SDS011;8594;52.052;8.354;2024-01-30T05:57:27;24.13;;;11.37;;
16954;SDS011;8594;52.052;8.354;2024-01-30T05:59:54;20.87;;;10.70;;
16954;SDS011;8594;52.052;8.354;2024-01-30T06:02:20;18.20;;;10.30;;
16954;SDS011;8594;52.052;8.354;2024-01-30T06:04:48;22.17;;;11.17;;
16954;SDS011;8594;52.052;8.354;2024-01-30T06:07:15;17.90;;;10.73;;
16954;SDS011;8594;52.052;8.354;2024-01-30T06:09:42;19.20;;;10.70;;
16954;SDS011;8594;52.052;8.354;2024-01-30T06:12:10;27.40;;;11.67;;
16954;SDS011;8594;52.052;8.354;2024-01-30T06:14:37;19.77;;;11.40;;
16954;SDS011;8594;52.052;8.354;2024-01-30T06:17:04;24.93;;;13.23;;
16954;SDS011;8594;52.052;8.354;2024-01-30T06:19:31;18.93;;;10.63;;
16954;SDS011;8594;52.052;8.354;2024-01-30T06:21:59;22.70;;;11.23;;
16954;SDS011;8594;52.052;8.354;2024-01-30T06:24:26;19.80;;;11.60;;
16954;SDS011;8594;52.052;8.354;2024-01-30T06:26:53;19.93;;;11.03;;
16954;SDS011;8594;52.052;8.354;2024-01-30T06:29:20;25.23;;;11.57;;
16954;SDS011;8594;52.052;8.354;2024-01-30T06:31:47;19.40;;;11.40;;
16954;SDS011;8594;52.052;8.354;2024-01-30T06:34:13;21.57;;;11.07;;
16954;SDS011;8594;52.052;8.354;2024-01-30T06:36:40;22.13;;;10.83;;
16954;SDS011;8594;52.052;8.354;2024-01-30T06:39:08;23.23;;;11.07;;
16954;SDS011;8594;52.052;8.354;2024-01-30T06:41:35;23.83;;;10.97;;
16954;SDS011;8594;52.052;8.354;2024-01-30T06:44:02;20.13;;;11.73;;
16954;SDS011;8594;52.052;8.354;2024-01-30T06:46:31;21.40;;;10.63;;
16954;SDS011;8594;52.052;8.354;2024-01-30T06:48:58;20.13;;;12.13;;
16954;SDS011;8594;52.052;8.354;2024-01-30T06:51:25;20.30;;;10.77;;
16954;SDS011;8594;52.052;8.354;2024-01-30T06:53:51;22.37;;;11.87;;
16954;SDS011;8594;52.052;8.354;2024-01-30T06:56:20;18.97;;;10.93;;
16954;SDS011;8594;52.052;8.354;2024-01-30T06:58:46;23.30;;;11.43;;
16954;SDS011;8594;52.052;8.354;2024-01-30T07:01:13;22.23;;;11.57;;
16954;SDS011;8594;52.052;8.354;2024-01-30T07:03:41;17.60;;;10.90;;
16954;SDS011;8594;52.052;8.354;2024-01-30T07:06:08;21.00;;;10.97;;
16954;SDS011;8594;52.052;8.354;2024-01-30T07:08:35;20.07;;;11.63;;
16954;SDS011;8594;52.052;8.354;2024-01-30T07:11:03;21.80;;;11.37;;
16954;SDS011;8594;52.052;8.354;2024-01-30T07:13:32;19.03;;;11.13;;
16954;SDS011;8594;52.052;8.354;2024-01-30T07:16:00;19.17;;;10.83;;
16954;SDS011;8594;52.052;8.354;2024-01-30T07:18:27;22.23;;;11.33;;
16954;SDS011;8594;52.052;8.354;2024-01-30T07:20:53;19.87;;;11.50;;
16954;SDS011;8594;52.052;8.354;2024-01-30T07:23:20;20.67;;;10.63;;
16954;SDS011;8594;52.052;8.354;2024-01-30T07:25:47;21.73;;;11.23;;
16954;SDS011;8594;52.052;8.354;2024-01-30T07:28:14;22.00;;;10.90;;
16954;SDS011;8594;52.052;8.354;2024-01-30T07:30:43;19.70;;;11.30;;
16954;SDS011;8594;52.052;8.354;2024-01-30T07:33:10;22.23;;;11.20;;
16954;SDS011;8594;52.052;8.354;2024-01-30T07:35:37;18.90;;;10.87;;
16954;SDS011;8594;52.052;8.354;2024-01-30T07:38:04;19.63;;;10.37;;
16954;SDS011;8594;52.052;8.354;2024-01-30T07:40:31;21.23;;;11.13;;
16954;SDS011;8594;52.052;8.354;2024-01-30T07:42:58;21.10;;;10.97;;
16954;SDS011;8594;52.052;8.354;2024-01-30T07:45:25;19.10;;;10.83;;
16954;SDS011;8594;52.052;8.354;2024-01-30T07:47:58;18.20;;;9.97;;
16954;SDS011;8594;52.052;8.354;2024-01-30T07:50:25;18.83;;;10.97;;
16954;SDS011;8594;52.052;8.354;2024-01-30T07:52:52;19.40;;;10.60;;
16954;SDS011;8594;52.052;8.354;2024-01-30T07:55:19;18.47;;;10.53;;
16954;SDS011;8594;52.052;8.354;2024-01-30T07:57:49;16.50;;;10.07;;
16954;SDS011;8594;52.052;8.354;2024-01-30T08:00:16;21.17;;;10.13;;
16954;SDS011;8594;52.052;8.354;2024-01-30T08:02:45;17.00;;;10.43;;
16954;SDS011;8594;52.052;8.354;2024-01-30T08:05:13;16.43;;;9.40;;
16954;SDS011;8594;52.052;8.354;2024-01-30T08:07:40;18.23;;;10.07;;
16954;SDS011;8594;52.052;8.354;2024-01-30T08:10:07;19.93;;;9.40;;
16954;SDS011;8594;52.052;8.354;2024-01-30T08:12:36;18.80;;;9.43;;
16954;SDS011;8594;52.052;8.354;2024-01-30T08:15:02;16.57;;;10.03;;
16954;SDS011;8594;52.052;8.354;2024-01-30T08:17:30;15.17;;;9.37;;
16954;SDS011;8594;52.052;8.354;2024-01-30T08:19:58;17.97;;;9.93;;
16954;SDS011;8594;52.052;8.354;2024-01-30T08:22:26;18.93;;;10.27;;
16954;SDS011;8594;52.052;8.354;2024-01-30T08:24:52;16.90;;;10.27;;
16954;SDS011;8594;52.052;8.354;2024-01-30T08:27:19;17.17;;;10.37;;
16954;SDS011;8594;52.052;8.354;2024-01-30T08:29:46;17.30;;;9.77;;
16954;SDS011;8594;52.052;8.354;2024-01-30T08:32:13;19.73;;;9.60;;
16954;SDS011;8594;52.052;8.354;2024-01-30T08:34:39;18.03;;;10.13;;
16954;SDS011;8594;52.052;8.354;2024-01-30T08:37:06;23.10;;;10.90;;
16954;SDS011;8594;52.052;8.354;2024-01-30T08:39:35;17.27;;;9.83;;
16954;SDS011;8594;52.052;8.354;2024-01-30T08:42:01;19.03;;;9.73;;
16954;SDS011;8594;52.052;8.354;2024-01-30T08:44:28;17.57;;;10.17;;
16954;SDS011;8594;52.052;8.354;2024-01-30T08:46:55;22.17;;;10.13;;
16954;SDS011;8594;52.052;8.354;2024-01-30T08:49:22;18.93;;;9.90;;
16954;SDS011;8594;52.052;8.354;2024-01-30T08:51:49;19.77;;;9.67;;
16954;SDS011;8594;52.052;8.354;2024-01-30T08:54:16;19.27;;;9.40;;
16954;SDS011;8594;52.052;8.354;2024-01-30T08:56:44;17.77;;;9.43;;
16954;SDS011;8594;52.052;8.354;2024-01-30T08:59:11;16.97;;;9.23;;
16954;SDS011;8594;52.052;8.354;2024-01-30T09:01:38;13.67;;;8.40;;
16954;SDS011;8594;52.052;8.354;2024-01-30T09:04:05;20.53;;;9.00;;
16954;SDS011;8594;52.052;8.354;2024-01-30T09:06:31;18.93;;;9.37;;
16954;SDS011;8594;52.052;8.354;2024-01-30T09:08:58;13.63;;;8.60;;
16954;SDS011;8594;52.052;8.354;2024-01-30T09:11:25;15.07;;;9.03;;
16954;SDS011;8594;52.052;8.354;2024-01-30T09:13:53;15.47;;;9.17;;
16954;SDS011;8594;52.052;8.354;2024-01-30T09:16:20;15.00;;;9.20;;
16954;SDS011;8594;52.052;8.354;2024-01-30T09:18:46;14.07;;;8.10;;
16954;SDS011;8594;52.052;8.354;2024-01-30T09:21:13;17.07;;;8.90;;
16954;SDS011;8594;52.052;8.354;2024-01-30T09:23:40;14.13;;;8.83;;
16954;SDS011;8594;52.052;8.354;2024-01-30T09:26:06;17.10;;;8.60;;
16954;SDS011;8594;52.052;8.354;2024-01-30T09:28:33;13.30;;;7.93;;
16954;SDS011;8594;52.052;8.354;2024-01-30T09:31:02;12.03;;;7.60;;
16954;SDS011;8594;52.052;8.354;2024-01-30T09:33:29;17.00;;;8.90;;
16954;SDS011;8594;52.052;8.354;2024-01-30T09:35:55;16.73;;;8.13;;
16954;SDS011;8594;52.052;8.354;2024-01-30T09:38:22;18.00;;;8.10;;
16954;SDS011;8594;52.052;8.354;2024-01-30T09:40:50;14.93;;;8.90;;
16954;SDS011;8594;52.052;8.354;2024-01-30T09:43:22;15.97;;;8.80;;
16954;SDS011;8594;52.052;8.354;2024-01-30T09:45:49;16.00;;;8.27;;
16954;SDS011;8594;52.052;8.354;2024-01-30T09:48:18;15.00;;;9.20;;
16954;SDS011;8594;52.052;8.354;2024-01-30T09:50:45;18.47;;;8.80;;
16954;SDS011;8594;52.052;8.354;2024-01-30T09:53:12;13.87;;;7.70;;
16954;SDS011;8594;52.052;8.354;2024-01-30T09:55:40;17.27;;;8.07;;
16954;SDS011;8594;52.052;8.354;2024-01-30T09:58:09;13.37;;;8.20;;
16954;SDS011;8594;52.052;8.354;2024-01-30T10:00:37;19.60;;;9.50;;
16954;SDS011;8594;52.052;8.354;2024-01-30T10:03:04;16.23;;;7.93;;
16954;SDS011;8594;52.052;8.354;2024-01-30T10:05:32;16.17;;;8.90;;
16954;SDS011;8594;52.052;8.354;2024-01-30T10:08:05;17.03;;;8.87;;
16954;SDS011;8594;52.052;8.354;2024-01-30T10:10:33;15.43;;;8.43;;
16954;SDS011;8594;52.052;8.354;2024-01-30T10:13:00;17.27;;;8.43;;
16954;SDS011;8594;52.052;8.354;2024-01-30T10:15:28;17.03;;;9.27;;
16954;SDS011;8594;52.052;8.354;2024-01-30T10:17:54;17.83;;;8.63;;
16954;SDS011;8594;52.052;8.354;2024-01-30T10:20:21;15.63;;;8.57;;
16954;SDS011;8594;52.052;8.354;2024-01-30T10:22:52;16.77;;;9.20;;
16954;SDS011;8594;52.052;8.354;2024-01-30T10:25:19;16.47;;;8.70;;
16954;SDS011;8594;52.052;8.354;2024-01-30T10:27:52;14.73;;;8.33;;
16954;SDS011;8594;52.052;8.354;2024-01-30T10:30:20;14.93;;;8.67;;
16954;SDS011;8594;52.052;8.354;2024-01-30T10:32:46;14.87;;;7.97;;
16954;SDS011;8594;52.052;8.354;2024-01-30T10:35:13;14.37;;;9.23;;
16954;SDS011;8594;52.052;8.354;2024-01-30T10:37:41;18.03;;;8.20;;
16954;SDS011;8594;52.052;8.354;2024-01-30T10:40:14;13.63;;;8.30;;
16954;SDS011;8594;52.052;8.354;2024-01-30T10:42:42;16.63;;;7.70;;
16954;SDS011;8594;52.052;8.354;2024-01-30T10:45:11;16.43;;;8.10;;
16954;SDS011;8594;52.052;8.354;2024-01-30T10:47:41;12.53;;;7.47;;
16954;SDS011;8594;52.052;8.354;2024-01-30T10:50:14;22.30;;;8.23;;
16954;SDS011;8594;52.052;8.354;2024-01-30T10:52:42;13.67;;;8.03;;
16954;SDS011;8594;52.052;8.354;2024-01-30T10:55:09;13.07;;;7.47;;
16954;SDS011;8594;52.052;8.354;2024-01-30T10:57:38;14.20;;;7.03;;
16954;SDS011;8594;52.052;8.354;2024-01-30T11:00:06;13.03;;;7.60;;
16954;SDS011;8594;52.052;8.354;2024-01-30T11:02:36;16.00;;;7.83;;
16954;SDS011;8594;52.052;8.354;2024-01-30T11:05:05;13.80;;;7.10;;
16954;SDS011;8594;52.052;8.354;2024-01-30T11:07:33;12.40;;;7.07;;
16954;SDS011;8594;52.052;8.354;2024-01-30T11:10:00;12.17;;;7.50;;
16954;SDS011;8594;52.052;8.354;2024-01-30T11:12:29;13.47;;;6.87;;
16954;SDS011;8594;52.052;8.354;2024-01-30T11:15:04;11.57;;;6.90;;
16954;SDS011;8594;52.052;8.354;2024-01-30T11:17:40;18.07;;;7.50;;
16954;SDS011;8594;52.052;8.354;2024-01-30T11:20:12;11.13;;;7.10;;
16954;SDS011;8594;52.052;8.354;2024-01-30T11:22:42;14.77;;;7.23;;
16954;SDS011;8594;52.052;8.354;2024-01-30T11:25:11;16.33;;;7.30;;
16954;SDS011;8594;52.052;8.354;2024-01-30T11:27:39;14.40;;;7.17;;
16954;SDS011;8594;52.052;8.354;2024-01-30T11:30:09;10.57;;;7.27;;
16954;SDS011;8594;52.052;8.354;2024-01-30T11:32:37;20.27;;;8.57;;
16954;SDS011;8594;52.052;8.354;2024-01-30T11:35:04;19.50;;;8.60;;
16954;SDS011;8594;52.052;8.354;2024-01-30T11:37:34;12.67;;;7.23;;
16954;SDS011;8594;52.052;8.354;2024-01-30T11:40:04;14.83;;;7.70;;
16954;SDS011;8594;52.052;8.354;2024-01-30T11:42:33;9.90;;;7.00;;
16954;SDS011;8594;52.052;8.354;2024-01-30T11:45:05;12.73;;;6.97;;
16954;SDS011;8594;52.052;8.354;2024-01-30T11:47:34;13.27;;;7.47;;
16954;SDS011;8594;52.052;8.354;2024-01-30T11:50:02;13.47;;;6.77;;
16954;SDS011;8594;52.052;8.354;2024-01-30T11:52:31;15.90;;;7.70;;
16954;SDS011;8594;52.052;8.354;2024-01-30T11:54:59;14.67;;;7.40;;
16954;SDS011;8594;52.052;8.354;2024-01-30T11:57:26;16.13;;;7.90;;
16954;SDS011;8594;52.052;8.354;2024-01-30T11:59:53;17.43;;;7.70;;
16954;SDS011;8594;52.052;8.354;2024-01-30T12:02:19;17.43;;;7.53;;
16954;SDS011;8594;52.052;8.354;2024-01-30T12:04:48;11.23;;;7.70;;
16954;SDS011;8594;52.052;8.354;2024-01-30T12:07:15;18.40;;;7.67;;
16954;SDS011;8594;52.052;8.354;2024-01-30T12:09:42;12.00;;;7.47;;
16954;SDS011;8594;52.052;8.354;2024-01-30T12:19:30;15.47;;;7.93;;
16954;SDS011;8594;52.052;8.354;2024-01-30T12:21:58;16.83;;;7.47;;
16954;SDS011;8594;52.052;8.354;2024-01-30T12:24:25;15.33;;;7.53;;
16954;SDS011;8594;52.052;8.354;2024-01-30T12:26:56;15.23;;;7.80;;
16954;SDS011;8594;52.052;8.354;2024-01-30T12:29:24;26.40;;;8.10;;
16954;SDS011;8594;52.052;8.354;2024-01-30T12:31:52;35.50;;;9.67;;
16954;SDS011;8594;52.052;8.354;2024-01-30T12:34:19;28.23;;;8.43;;
16954;SDS011;8594;52.052;8.354;2024-01-30T12:36:46;16.30;;;7.20;;
16954;SDS011;8594;52.052;8.354;2024-01-30T12:39:15;26.70;;;8.47;;
16954;SDS011;8594;52.052;8.354;2024-01-30T12:41:41;14.67;;;7.50;;
16954;SDS011;8594;52.052;8.354;2024-01-30T12:44:08;16.50;;;7.83;;
16954;SDS011;8594;52.052;8.354;2024-01-30T12:46:35;14.90;;;7.47;;
16954;SDS011;8594;52.052;8.354;2024-01-30T12:49:02;11.77;;;7.13;;
16954;SDS011;8594;52.052;8.354;2024-01-30T12:51:29;15.97;;;7.87;;
16954;SDS011;8594;52.052;8.354;2024-01-30T12:53:55;19.87;;;7.97;;
16954;SDS011;8594;52.052;8.354;2024-01-30T12:56:24;16.70;;;7.73;;
16954;SDS011;8594;52.052;8.354;2024-01-30T12:58:50;15.77;;;7.60;;
16954;SDS011;8594;52.052;8.354;2024-01-30T13:01:17;20.33;;;8.00;;
16954;SDS011;8594;52.052;8.354;2024-01-30T13:03:44;18.17;;;8.17;;
16954;SDS011;8594;52.052;8.354;2024-01-30T13:06:11;15.00;;;7.80;;
16954;SDS011;8594;52.052;8.354;2024-01-30T13:08:38;14.27;;;7.90;;
16954;SDS011;8594;52.052;8.354;2024-01-30T13:11:05;20.97;;;8.27;;
16954;SDS011;8594;52.052;8.354;2024-01-30T13:13:33;15.63;;;7.80;;
16954;SDS011;8594;52.052;8.354;2024-01-30T13:16:00;16.87;;;7.87;;
16954;SDS011;8594;52.052;8.354;2024-01-30T13:18:27;20.10;;;7.53;;
16954;SDS011;8594;52.052;8.354;2024-01-30T13:20:54;15.73;;;7.97;;
16954;SDS011;8594;52.052;8.354;2024-01-30T13:23:20;19.13;;;8.10;;
16954;SDS011;8594;52.052;8.354;2024-01-30T13:25:47;11.97;;;7.57;;
16954;SDS011;8594;52.052;8.354;2024-01-30T13:28:14;16.63;;;8.27;;
16954;SDS011;8594;52.052;8.354;2024-01-30T13:30:42;16.60;;;8.37;;
16954;SDS011;8594;52.052;8.354;2024-01-30T13:33:09;27.50;;;10.17;;
16954;SDS011;8594;52.052;8.354;2024-01-30T13:35:35;24.77;;;9.20;;
16954;SDS011;8594;52.052;8.354;2024-01-30T13:38:03;18.87;;;8.83;;
16954;SDS011;8594;52.052;8.354;2024-01-30T13:40:30;20.03;;;8.53;;
16954;SDS011;8594;52.052;8.354;2024-01-30T13:42:56;16.57;;;8.47;;
16954;SDS011;8594;52.052;8.354;2024-01-30T13:45:23;19.73;;;8.83;;
16954;SDS011;8594;52.052;8.354;2024-01-30T13:47:51;16.10;;;10.00;;
16954;SDS011;8594;52.052;8.354;2024-01-30T13:50:18;17.53;;;8.53;;
16954;SDS011;8594;52.052;8.354;2024-01-30T13:52:45;15.63;;;8.83;;
16954;SDS011;8594;52.052;8.354;2024-01-30T13:55:12;20.37;;;8.67;;
16954;SDS011;8594;52.052;8.354;2024-01-30T13:57:39;18.43;;;8.47;;
16954;SDS011;8594;52.052;8.354;2024-01-30T14:00:06;19.57;;;9.13;;
16954;SDS011;8594;52.052;8.354;2024-01-30T14:02:34;16.27;;;8.67;;
16954;SDS011;8594;52.052;8.354;2024-01-30T14:05:03;17.20;;;9.47;;
16954;SDS011;8594;52.052;8.354;2024-01-30T14:07:31;19.63;;;8.87;;
16954;SDS011;8594;52.052;8.354;2024-01-30T14:09:57;16.63;;;8.70;;
16954;SDS011;8594;52.052;8.354;2024-01-30T14:12:24;19.40;;;9.00;;
16954;SDS011;8594;52.052;8.354;2024-01-30T14:14:51;21.43;;;9.40;;
16954;SDS011;8594;52.052;8.354;2024-01-30T14:17:18;21.03;;;8.77;;
16954;SDS011;8594;52.052;8.354;2024-01-30T14:19:44;19.97;;;8.53;;
16954;SDS011;8594;52.052;8.354;2024-01-30T14:22:12;18.67;;;8.80;;
16954;SDS011;8594;52.052;8.354;2024-01-30T14:24:39;15.30;;;8.87;;
16954;SDS011;8594;52.052;8.354;2024-01-30T14:27:06;21.17;;;9.57;;
16954;SDS011;8594;52.052;8.354;2024-01-30T14:29:33;19.80;;;9.40;;
16954;SDS011;8594;52.052;8.354;2024-01-30T14:32:00;19.13;;;9.07;;
16954;SDS011;8594;52.052;8.354;2024-01-30T14:34:29;23.73;;;9.40;;
16954;SDS011;8594;52.052;8.354;2024-01-30T14:36:55;25.73;;;9.07;;
16954;SDS011;8594;52.052;8.354;2024-01-30T14:39:24;17.07;;;9.07;;
16954;SDS011;8594;52.052;8.354;2024-01-30T14:41:50;17.87;;;8.90;;
16954;SDS011;8594;52.052;8.354;2024-01-30T14:44:17;21.20;;;8.77;;
16954;SDS011;8594;52.052;8.354;2024-01-30T14:46:44;16.13;;;8.67;;
16954;SDS011;8594;52.052;8.354;2024-01-30T14:49:11;25.27;;;9.10;;
16954;SDS011;8594;52.052;8.354;2024-01-30T14:51:38;17.60;;;8.90;;